Time;durP1;ratioP1;P1;durP2;ratioP2;P2;SDS_P1;SDS_P2;PMS_P1;PMS_P2;Temp;Humidity;BMP_temperature;BMP_pressure;BME280_temperature;BME280_humidity;BME280_pressure;Samples;Min_cycle;Max_cycle;Signal;HPM_P1;HPM_P2
2022/01/17 00:00:30;;;;;;;12.32;3.50;;;8.90;80.20;;;;;;5097123;28;20027;-64
2022/01/17 00:02:59;;;;;;;11.18;3.30;;;8.90;80.20;;;;;;5097174;28;20095;-64
2022/01/17 00:05:25;;;;;;;11.80;3.00;;;8.90;80.10;;;;;;5095982;28;20020;-64
2022/01/17 00:07:51;;;;;;;12.80;3.50;;;8.90;80.10;;;;;;5087871;28;20456;-64
2022/01/17 00:10:16;;;;;;;14.10;3.58;;;8.90;80.00;;;;;;5096629;28;20028;-64
2022/01/17 00:12:47;;;;;;;16.98;3.75;;;8.90;80.00;;;;;;5096206;28;20031;-64
2022/01/17 00:15:26;;;;;;;11.13;4.03;;;8.90;80.00;;;;;;5096782;28;20038;-64
2022/01/17 00:18:08;;;;;;;9.07;3.47;;;8.90;79.90;;;;;;5095742;28;20035;-64
2022/01/17 00:20:34;;;;;;;13.52;3.53;;;8.90;80.00;;;;;;5096826;28;20036;-64
2022/01/17 00:23:00;;;;;;;12.67;4.53;;;8.90;80.10;;;;;;5097397;28;20043;-64
2022/01/17 00:25:25;;;;;;;12.82;4.43;;;8.80;80.10;;;;;;5096172;28;20378;-64
2022/01/17 00:27:51;;;;;;;15.82;4.90;;;8.80;80.10;;;;;;5096712;28;20071;-64
2022/01/17 00:30:17;;;;;;;15.38;5.20;;;8.90;80.20;;;;;;5097212;28;20035;-64
2022/01/17 00:32:43;;;;;;;16.00;4.40;;;8.90;80.30;;;;;;5095440;28;20085;-64
2022/01/17 00:35:09;;;;;;;12.38;4.85;;;8.90;80.30;;;;;;5096407;28;20067;-64
2022/01/17 00:37:34;;;;;;;11.60;4.20;;;8.90;80.30;;;;;;5096020;28;20032;-64
2022/01/17 00:40:00;;;;;;;13.88;4.40;;;8.90;80.30;;;;;;5095459;28;20073;-64
2022/01/17 00:42:26;;;;;;;14.23;4.53;;;8.90;80.30;;;;;;5095803;28;20080;-64
2022/01/17 00:44:51;;;;;;;12.13;4.63;;;8.80;80.30;;;;;;5096440;28;20222;-64
2022/01/17 00:47:17;;;;;;;11.82;4.90;;;8.90;80.30;;;;;;5095761;28;20032;-64
2022/01/17 00:49:42;;;;;;;18.92;6.05;;;8.90;80.40;;;;;;5096173;28;20123;-64
2022/01/17 00:52:08;;;;;;;15.93;6.05;;;8.90;80.40;;;;;;5095870;28;20032;-64
2022/01/17 00:54:34;;;;;;;16.55;5.53;;;8.90;80.40;;;;;;5096523;28;20043;-64
2022/01/17 00:56:59;;;;;;;13.18;5.45;;;8.90;80.40;;;;;;5095567;28;20036;-64
2022/01/17 00:59:25;;;;;;;13.27;8.50;;;8.90;80.50;;;;;;5096265;28;20337;-64
2022/01/17 01:01:51;;;;;;;22.10;13.57;;;8.90;80.50;;;;;;5096001;28;20059;-64
2022/01/17 01:04:16;;;;;;;26.80;17.27;;;8.90;80.50;;;;;;5095845;28;20034;-64
2022/01/17 01:06:42;;;;;;;36.53;29.33;;;8.90;80.50;;;;;;5094700;28;20444;-64
2022/01/17 01:09:07;;;;;;;43.13;35.40;;;8.80;80.50;;;;;;5095668;28;20115;-64
2022/01/17 01:11:34;;;;;;;50.67;38.20;;;8.80;80.50;;;;;;5095404;28;20023;-64
2022/01/17 01:14:00;;;;;;;94.63;62.42;;;8.80;80.50;;;;;;5095130;28;20036;-64
2022/01/17 01:16:34;;;;;;;96.28;78.30;;;8.90;80.50;;;;;;5095296;28;20032;-64
2022/01/17 01:21:46;;;;;;;96.20;77.10;;;8.80;80.40;;;;;;5093958;28;20028;-64
2022/01/17 01:29:50;;;;;;;101.63;75.90;;;8.80;80.20;;;;;;5094897;28;20044;-64
2022/01/17 01:32:20;;;;;;;52.97;41.50;;;8.80;80.10;;;;;;5095252;28;20027;-64
2022/01/17 01:34:51;;;;;;;43.03;34.53;;;8.80;80.00;;;;;;5095011;28;20103;-64
2022/01/17 01:37:17;;;;;;;44.72;35.55;;;8.80;79.80;;;;;;5094033;28;20385;-64
2022/01/17 01:39:42;;;;;;;52.78;39.53;;;8.80;80.40;;;;;;5094004;28;20036;-64
2022/01/17 01:42:15;;;;;;;61.50;48.63;;;8.90;79.60;;;;;;5094727;28;20024;-64
2022/01/17 01:44:40;;;;;;;81.20;57.55;;;8.90;79.40;;;;;;5093670;28;20077;-64
2022/01/17 01:47:06;;;;;;;89.78;59.45;;;8.90;79.40;;;;;;5094759;28;20380;-64
2022/01/17 01:49:32;;;;;;;107.63;63.58;;;8.80;79.20;;;;;;5094731;28;20386;-64
2022/01/17 01:51:58;;;;;;;115.78;68.70;;;8.80;79.10;;;;;;5094600;28;20066;-64
2022/01/17 01:54:23;;;;;;;118.57;69.60;;;8.80;78.90;;;;;;5076750;28;20020;-64
2022/01/17 01:56:50;;;;;;;106.45;61.03;;;8.80;78.80;;;;;;5094019;28;20119;-64
2022/01/17 01:59:19;;;;;;;87.05;48.97;;;8.80;78.70;;;;;;5094552;28;20026;-64
2022/01/17 02:01:46;;;;;;;86.70;48.23;;;8.80;78.50;;;;;;5094559;28;21454;-64
2022/01/17 02:04:12;;;;;;;82.07;47.00;;;8.80;78.40;;;;;;5093784;28;20042;-64
2022/01/17 02:06:38;;;;;;;84.40;51.30;;;8.80;78.20;;;;;;5093494;28;20031;-64
2022/01/17 02:09:07;;;;;;;81.40;46.97;;;8.80;78.10;;;;;;5094671;28;20418;-64
2022/01/17 02:11:33;;;;;;;76.90;47.20;;;8.80;78.00;;;;;;5094332;28;20046;-64
2022/01/17 02:14:00;;;;;;;69.80;42.33;;;8.70;77.80;;;;;;5094411;28;20031;-64
2022/01/17 02:16:25;;;;;;;79.53;42.72;;;8.80;77.80;;;;;;5094722;28;20070;-65
2022/01/17 02:18:51;;;;;;;76.07;43.33;;;8.80;77.70;;;;;;5093556;28;20055;-64
2022/01/17 02:21:33;;;;;;;77.82;43.13;;;8.80;77.60;;;;;;5092614;28;20031;-64
2022/01/17 02:24:00;;;;;;;76.15;43.63;;;8.80;77.50;;;;;;5094347;28;20066;-64
2022/01/17 02:26:27;;;;;;;63.78;32.65;;;8.70;77.50;;;;;;5101166;28;20353;-64
2022/01/17 02:28:55;;;;;;;59.88;31.10;;;8.70;77.40;;;;;;5092970;28;20044;-64
2022/01/17 02:31:23;;;;;;;52.27;26.57;;;8.70;77.30;;;;;;5093335;28;20074;-64
2022/01/17 02:33:53;;;;;;;42.65;20.30;;;8.70;77.30;;;;;;5093986;28;20092;-64
2022/01/17 02:36:19;;;;;;;33.15;13.75;;;8.70;77.30;;;;;;5096658;28;20365;-64
2022/01/17 02:38:45;;;;;;;27.17;10.65;;;8.70;77.20;;;;;;5096255;28;20032;-64
2022/01/17 02:41:11;;;;;;;20.52;7.53;;;8.70;77.20;;;;;;5095994;28;20154;-64
2022/01/17 02:43:38;;;;;;;17.80;5.75;;;8.70;77.10;;;;;;5096956;28;20028;-64
2022/01/17 02:48:32;;;;;;;10.68;3.42;;;8.70;76.80;;;;;;5095932;28;20059;-64
2022/01/17 02:50:59;;;;;;;9.07;3.70;;;8.70;76.80;;;;;;5096975;28;20032;-64
2022/01/17 02:53:26;;;;;;;13.75;3.67;;;8.70;76.60;;;;;;5096377;28;20429;-64
2022/01/17 02:55:58;;;;;;;14.70;4.03;;;8.70;76.50;;;;;;5096581;28;20032;-64
2022/01/17 02:58:25;;;;;;;11.18;3.53;;;8.70;76.40;;;;;;5096635;28;20016;-64
2022/01/17 03:00:53;;;;;;;15.35;2.80;;;8.70;76.30;;;;;;5096125;28;20062;-64
2022/01/17 03:03:30;;;;;;;9.73;2.85;;;8.70;76.30;;;;;;5095574;28;20085;-64
2022/01/17 03:05:57;;;;;;;7.47;2.35;;;8.70;76.10;;;;;;5096494;28;20114;-64
2022/01/17 03:08:30;;;;;;;8.55;2.35;;;8.70;76.20;;;;;;5097023;28;20075;-64
2022/01/17 03:10:58;;;;;;;12.70;2.88;;;8.70;76.10;;;;;;5095899;28;20372;-64
2022/01/17 03:13:30;;;;;;;9.98;2.22;;;8.70;76.10;;;;;;5094990;28;20119;-64
2022/01/17 03:15:59;;;;;;;10.77;2.33;;;8.70;76.10;;;;;;5096296;28;20483;-64
2022/01/17 03:18:29;;;;;;;8.75;1.88;;;8.70;75.90;;;;;;5096381;28;20459;-64
2022/01/17 03:20:55;;;;;;;11.20;2.10;;;8.70;75.80;;;;;;5096366;28;20028;-64
2022/01/17 03:23:21;;;;;;;9.90;2.67;;;8.60;75.70;;;;;;5096174;28;20487;-64
2022/01/17 03:25:47;;;;;;;17.10;2.85;;;8.70;75.70;;;;;;5096355;28;20032;-64
2022/01/17 03:28:12;;;;;;;11.47;2.70;;;8.60;75.70;;;;;;5058923;28;1032108;-65
2022/01/17 03:30:38;;;;;;;11.15;2.08;;;8.60;75.70;;;;;;5097973;28;20042;-64
2022/01/17 03:33:06;;;;;;;9.18;2.40;;;8.60;76.40;;;;;;5097254;28;20032;-64
2022/01/17 03:35:32;;;;;;;15.20;2.85;;;8.60;75.70;;;;;;5079574;28;20039;-64
2022/01/17 03:37:58;;;;;;;9.85;2.67;;;8.50;75.70;;;;;;5097527;28;20031;-64
2022/01/17 03:40:24;;;;;;;9.57;2.22;;;8.50;75.80;;;;;;5096957;28;20024;-64
2022/01/17 03:42:50;;;;;;;11.90;2.77;;;8.40;75.80;;;;;;5097346;28;20036;-64
2022/01/17 03:45:16;;;;;;;17.40;2.87;;;8.40;75.90;;;;;;5096217;28;20414;-64
2022/01/17 03:47:47;;;;;;;12.73;2.65;;;8.40;76.00;;;;;;5097222;28;20255;-64
2022/01/17 03:50:14;;;;;;;;;;;8.40;76.00;;;;;;5095472;28;20020;-64
2022/01/17 03:52:40;;;;;;;11.50;2.47;;;8.40;76.10;;;;;;5096976;28;19926;-64
2022/01/17 03:55:11;;;;;;;13.23;2.78;;;8.30;76.10;;;;;;5097287;28;20085;-64
2022/01/17 03:57:37;;;;;;;12.17;2.23;;;8.30;76.10;;;;;;5092826;28;20479;-64
2022/01/17 04:00:08;;;;;;;11.27;2.43;;;8.30;76.20;;;;;;5096575;28;20028;-64
2022/01/17 04:02:38;;;;;;;11.93;2.45;;;8.20;76.20;;;;;;5096689;28;20028;-65
2022/01/17 04:05:04;;;;;;;8.23;2.63;;;8.20;76.30;;;;;;5096177;28;20024;-64
2022/01/17 04:07:30;;;;;;;12.05;2.72;;;8.20;76.20;;;;;;5096627;28;20028;-64
2022/01/17 04:09:56;;;;;;;11.20;2.73;;;8.20;76.30;;;;;;5096832;28;20035;-64
2022/01/17 04:12:21;;;;;;;11.32;1.83;;;8.20;76.30;;;;;;5095147;28;20060;-64
2022/01/17 04:14:47;;;;;;;14.17;2.90;;;8.10;76.20;;;;;;5095899;28;20039;-64
2022/01/17 04:17:12;;;;;;;16.93;2.73;;;8.10;76.20;;;;;;5096156;28;20456;-64
2022/01/17 04:19:39;;;;;;;17.93;1.80;;;8.10;76.30;;;;;;5096643;28;20039;-64
2022/01/17 04:22:04;;;;;;;15.37;2.40;;;8.10;76.30;;;;;;5096294;28;20035;-64
2022/01/17 04:24:30;;;;;;;9.50;2.53;;;8.00;76.30;;;;;;5095630;28;20062;-64
2022/01/17 04:26:56;;;;;;;13.50;2.70;;;8.00;76.40;;;;;;5095937;28;20031;-64
2022/01/17 04:29:21;;;;;;;9.52;2.15;;;8.00;76.40;;;;;;5096000;28;20058;-64
2022/01/17 04:31:47;;;;;;;13.63;2.50;;;8.00;76.50;;;;;;5096172;28;20392;-64
2022/01/17 04:34:13;;;;;;;11.23;2.75;;;7.90;76.50;;;;;;5096222;28;20032;-64
2022/01/17 04:36:38;;;;;;;14.53;2.77;;;7.90;76.60;;;;;;5096163;28;20024;-64
2022/01/17 04:39:04;;;;;;;11.00;2.17;;;7.90;76.60;;;;;;5095350;28;20032;-64
2022/01/17 04:41:38;;;;;;;11.33;2.20;;;7.90;76.60;;;;;;5095975;28;20051;-64
2022/01/17 04:46:48;;;;;;;11.00;2.20;;;8.00;76.60;;;;;;5095665;28;20363;-64
2022/01/17 04:49:14;;;;;;;9.45;2.17;;;7.90;76.50;;;;;;5095938;28;20111;-64
2022/01/17 04:51:40;;;;;;;9.77;2.30;;;8.00;76.60;;;;;;5095416;28;20042;-64
2022/01/17 04:54:31;;;;;;;17.33;2.80;;;8.00;76.60;;;;;;5095902;28;20382;-64
2022/01/17 04:56:54;;;;;;;6.20;1.97;;;7.90;76.60;;;;;;5093486;28;20036;-64
2022/01/17 04:59:20;;;;;;;12.40;2.30;;;7.90;76.60;;;;;;5091622;28;20024;-64
2022/01/17 05:01:45;;;;;;;10.27;1.97;;;8.00;76.60;;;;;;5075015;28;20468;-64
2022/01/17 05:04:11;;;;;;;9.00;2.20;;;8.00;76.60;;;;;;5094150;28;20028;-64
2022/01/17 05:06:36;;;;;;;17.03;2.70;;;8.00;76.60;;;;;;5095509;28;20034;-64
2022/01/17 05:09:04;;;;;;;8.50;1.60;;;8.00;76.60;;;;;;5094934;28;20028;-64
2022/01/17 05:11:30;;;;;;;10.73;1.83;;;8.00;76.70;;;;;;5094936;28;20031;-64
2022/01/17 05:13:57;;;;;;;6.40;1.60;;;8.00;76.80;;;;;;5095924;28;20114;-64
2022/01/17 05:16:31;;;;;;;10.47;2.03;;;8.00;76.90;;;;;;5093827;28;20437;-64
2022/01/17 05:21:40;;;;;;;13.10;2.28;;;8.00;76.90;;;;;;5089863;28;20032;-64
2022/01/17 05:24:06;;;;;;;7.83;1.90;;;7.90;77.00;;;;;;5092539;28;20043;-64
2022/01/17 05:26:31;;;;;;;11.53;2.00;;;7.90;77.10;;;;;;5092909;28;20135;-64
2022/01/17 05:28:57;;;;;;;9.43;2.05;;;7.90;77.10;;;;;;5093101;28;20051;-64
2022/01/17 05:31:23;;;;;;;13.20;2.50;;;7.90;77.20;;;;;;5086800;28;20144;-64
2022/01/17 05:33:48;;;;;;;9.03;2.07;;;7.90;77.20;;;;;;5095235;28;20046;-64
2022/01/17 05:36:14;;;;;;;9.57;2.25;;;7.80;77.20;;;;;;5093923;28;20035;-64
2022/01/17 05:38:40;;;;;;;15.43;2.93;;;7.80;77.90;;;;;;5094931;28;20077;-64
2022/01/17 05:41:05;;;;;;;9.07;2.20;;;7.80;77.90;;;;;;5095027;28;20027;-64
2022/01/17 05:43:31;;;;;;;11.23;2.90;;;7.80;77.40;;;;;;5093886;28;20031;-64
2022/01/17 05:45:56;;;;;;;10.80;2.20;;;7.80;77.40;;;;;;5094798;28;20101;-64
2022/01/17 05:48:22;;;;;;;6.65;2.25;;;7.80;77.40;;;;;;5084213;28;20047;-64
2022/01/17 05:50:48;;;;;;;9.30;2.38;;;7.70;77.50;;;;;;5092142;28;20028;-64
2022/01/17 05:53:14;;;;;;;9.73;2.40;;;7.70;77.60;;;;;;5095238;28;20023;-64
2022/01/17 05:55:40;;;;;;;10.20;2.17;;;7.70;77.70;;;;;;5092771;28;20368;-64
2022/01/17 05:58:06;;;;;;;10.90;2.50;;;7.70;77.80;;;;;;5094090;28;20040;-64
2022/01/17 06:00:32;;;;;;;12.73;3.30;;;7.70;77.80;;;;;;5092502;28;20024;-64
2022/01/17 06:02:58;;;;;;;9.77;2.50;;;7.70;77.90;;;;;;5094329;28;20471;-64
2022/01/17 06:05:23;;;;;;;10.70;3.10;;;7.70;78.60;;;;;;5093850;28;20039;-64
2022/01/17 06:07:49;;;;;;;10.90;2.50;;;7.70;77.90;;;;;;5093388;28;20024;-66
2022/01/17 06:10:15;;;;;;;9.77;2.73;;;7.70;78.00;;;;;;5076166;28;20030;-64
2022/01/17 06:12:40;;;;;;;11.23;2.63;;;7.70;78.10;;;;;;5092842;28;20040;-64
2022/01/17 06:15:07;;;;;;;11.63;3.27;;;7.70;78.20;;;;;;5093770;28;20097;-64
2022/01/17 06:17:32;;;;;;;11.03;2.93;;;7.60;78.20;;;;;;5093679;28;20032;-64
2022/01/17 06:19:58;;;;;;;11.20;3.50;;;7.60;78.30;;;;;;5093409;28;20131;-64
2022/01/17 06:22:24;;;;;;;14.80;4.07;;;7.60;78.30;;;;;;5093941;28;20034;-64
2022/01/17 06:24:49;;;;;;;16.67;3.63;;;7.60;78.40;;;;;;5093511;28;20054;-64
2022/01/17 06:27:15;;;;;;;11.13;3.30;;;7.60;78.40;;;;;;5093357;28;20035;-64
2022/01/17 06:29:41;;;;;;;12.53;3.57;;;7.60;78.60;;;;;;5094158;28;20177;-64
2022/01/17 06:32:07;;;;;;;15.10;3.80;;;7.60;78.60;;;;;;5093695;28;20110;-64
2022/01/17 06:34:33;;;;;;;15.50;4.43;;;7.60;78.70;;;;;;5094093;28;20028;-64
2022/01/17 06:36:58;;;;;;;12.33;4.27;;;7.60;78.80;;;;;;5093062;28;20046;-64
2022/01/17 06:39:24;;;;;;;12.63;4.73;;;7.60;78.90;;;;;;5076237;28;20095;-64
2022/01/17 06:41:50;;;;;;;14.83;5.50;;;7.60;79.00;;;;;;5093259;28;20032;-64
2022/01/17 06:44:17;;;;;;;12.23;5.73;;;7.60;79.00;;;;;;5093941;28;20044;-64
2022/01/17 06:46:42;;;;;;;14.13;5.00;;;7.60;79.10;;;;;;5094436;28;20036;-64
2022/01/17 06:49:09;;;;;;;15.93;5.37;;;7.50;79.10;;;;;;5094609;28;20344;-64
2022/01/17 06:51:35;;;;;;;13.33;4.90;;;7.50;79.20;;;;;;5093486;28;20411;-64
2022/01/17 06:54:01;;;;;;;16.83;5.73;;;7.60;79.30;;;;;;5093831;28;20452;-63
2022/01/17 06:56:27;;;;;;;12.23;5.90;;;7.50;79.30;;;;;;5091981;28;20082;-64
2022/01/17 06:58:52;;;;;;;17.60;6.03;;;7.50;79.30;;;;;;5092698;28;20527;-64
2022/01/17 07:01:20;;;;;;;16.57;6.67;;;7.60;79.40;;;;;;5092718;28;20028;-64
2022/01/17 07:03:47;;;;;;;19.87;6.90;;;7.60;79.40;;;;;;5092172;28;20090;-64
2022/01/17 07:06:12;;;;;;;15.57;6.17;;;7.60;79.40;;;;;;5097367;28;20342;-64
2022/01/17 07:08:38;;;;;;;11.00;5.43;;;7.70;79.40;;;;;;5098700;28;20062;-64
2022/01/17 07:11:04;;;;;;;16.03;6.80;;;7.70;79.40;;;;;;5093182;28;20095;-64
2022/01/17 07:13:31;;;;;;;13.90;5.87;;;7.80;79.40;;;;;;5092295;28;20036;-64
2022/01/17 07:15:56;;;;;;;14.60;5.47;;;7.80;79.40;;;;;;5092004;28;20464;-64
2022/01/17 07:18:22;;;;;;;14.07;6.10;;;7.70;79.40;;;;;;5092579;28;20035;-64
2022/01/17 07:20:48;;;;;;;10.40;5.80;;;7.70;79.60;;;;;;5095495;28;20337;-65
2022/01/17 07:23:14;;;;;;;13.33;6.07;;;7.70;79.60;;;;;;5097073;28;20035;-64
2022/01/17 07:25:40;;;;;;;13.23;6.80;;;7.70;79.70;;;;;;5095592;28;20028;-64
2022/01/17 07:28:08;;;;;;;16.57;6.90;;;7.80;79.80;;;;;;5095775;28;20105;-65
2022/01/17 07:30:34;;;;;;;14.83;6.17;;;7.80;79.90;;;;;;5096848;28;20050;-64
2022/01/17 07:33:00;;;;;;;15.87;7.27;;;7.80;79.90;;;;;;5093270;28;20020;-64
2022/01/17 07:35:26;;;;;;;15.80;7.17;;;7.80;79.90;;;;;;5094930;28;20069;-64
2022/01/17 07:37:51;;;;;;;15.87;7.60;;;7.80;80.00;;;;;;5095908;28;20062;-65
2022/01/17 07:40:17;;;;;;;15.63;7.07;;;7.80;80.00;;;;;;5096152;28;20429;-64
2022/01/17 07:42:43;;;;;;;13.23;8.07;;;7.90;80.10;;;;;;5097431;28;20395;-64
2022/01/17 07:45:12;;;;;;;18.27;7.63;;;7.90;80.10;;;;;;5096281;28;20118;-65
2022/01/17 07:48:44;;;;;;;16.80;8.63;;;7.90;80.20;;;;;;5096921;28;20089;-64
2022/01/17 07:50:25;;;;;;;17.63;9.10;;;7.90;80.20;;;;;;5071912;28;20494;-64
2022/01/17 07:52:52;;;;;;;23.90;9.20;;;7.90;80.20;;;;;;5096347;28;20119;-64
2022/01/17 07:55:19;;;;;;;16.17;8.07;;;7.90;80.20;;;;;;5096765;28;20089;-64
2022/01/17 07:57:45;;;;;;;22.80;9.63;;;7.90;80.30;;;;;;5095981;28;20388;-64
2022/01/17 08:00:14;;;;;;;17.77;8.27;;;7.90;80.30;;;;;;5096473;28;20024;-64
2022/01/17 08:02:45;;;;;;;19.07;9.63;;;8.00;80.40;;;;;;5095285;28;20433;-64
2022/01/17 08:05:14;;;;;;;18.53;8.67;;;8.00;80.50;;;;;;5078295;28;20028;-64
2022/01/17 08:07:41;;;;;;;21.87;9.20;;;8.00;80.50;;;;;;5078393;28;20123;-64
2022/01/17 08:10:12;;;;;;;18.93;9.17;;;8.00;80.50;;;;;;5096193;28;20060;-64
2022/01/17 08:12:46;;;;;;;17.03;9.17;;;8.10;80.60;;;;;;5095933;28;20044;-64
2022/01/17 08:15:12;;;;;;;17.48;8.82;;;8.10;80.60;;;;;;5095458;28;20710;-64
2022/01/17 08:17:38;;;;;;;17.00;8.90;;;8.10;80.60;;;;;;5095704;28;20063;-64
2022/01/17 08:20:05;;;;;;;18.60;9.63;;;8.10;80.70;;;;;;5094239;28;20148;-64
2022/01/17 08:22:31;;;;;;;18.43;9.87;;;8.10;80.70;;;;;;5094967;28;20028;-64
2022/01/17 08:24:57;;;;;;;20.43;9.23;;;8.10;80.70;;;;;;5096444;28;20016;-64
2022/01/17 08:27:23;;;;;;;21.63;9.75;;;8.10;80.70;;;;;;5095862;28;20020;-64
2022/01/17 08:29:48;;;;;;;19.30;9.40;;;8.10;80.70;;;;;;5095792;28;20460;-64
2022/01/17 08:32:14;;;;;;;19.60;9.75;;;8.10;80.60;;;;;;5094649;28;20060;-64
2022/01/17 08:34:39;;;;;;;18.53;9.30;;;8.10;80.70;;;;;;5094635;28;20046;-64
2022/01/17 08:37:05;;;;;;;16.43;8.73;;;8.10;80.70;;;;;;5095149;28;20360;-65
2022/01/17 08:39:31;;;;;;;16.57;8.43;;;8.20;80.70;;;;;;5080136;28;20111;-64
2022/01/17 08:41:58;;;;;;;14.50;8.27;;;8.20;80.70;;;;;;5093921;28;20360;-64
2022/01/17 08:44:24;;;;;;;16.80;8.45;;;8.30;80.70;;;;;;5093042;28;20035;-63
2022/01/17 08:46:50;;;;;;;20.02;8.98;;;8.30;80.60;;;;;;5095244;28;20103;-63
2022/01/17 08:49:16;;;;;;;19.50;8.63;;;8.40;80.60;;;;;;5094744;28;20112;-63
2022/01/17 08:51:43;;;;;;;13.88;7.55;;;8.40;80.50;;;;;;5095039;28;22014;-63
2022/01/17 08:54:08;;;;;;;19.80;8.50;;;8.40;80.50;;;;;;5095455;28;20488;-63
2022/01/17 08:56:34;;;;;;;22.37;9.13;;;8.40;80.50;;;;;;5095056;28;20114;-63
2022/01/17 08:59:02;;;;;;;16.85;8.07;;;8.40;80.40;;;;;;5094843;28;20047;-63
2022/01/17 09:01:28;;;;;;;17.55;8.90;;;8.40;80.40;;;;;;5094227;28;20024;-63
2022/01/17 09:03:54;;;;;;;17.15;8.15;;;8.50;80.50;;;;;;5095090;28;20081;-63
2022/01/17 09:06:23;;;;;;;21.03;8.60;;;8.50;80.50;;;;;;5094689;28;20032;-64
2022/01/17 09:08:48;;;;;;;19.77;8.40;;;8.50;80.50;;;;;;5093673;28;20321;-64
2022/01/17 09:11:14;;;;;;;16.80;8.25;;;8.50;80.50;;;;;;5094613;28;20028;-63
2022/01/17 09:13:40;;;;;;;20.10;8.65;;;8.50;80.50;;;;;;5093515;28;20081;-63
2022/01/17 09:16:05;;;;;;;22.27;8.77;;;8.50;80.50;;;;;;5094184;28;20054;-63
2022/01/17 09:18:31;;;;;;;13.60;6.90;;;8.50;80.50;;;;;;5095045;28;20352;-63
2022/01/17 09:20:57;;;;;;;17.17;8.05;;;8.50;80.50;;;;;;5095725;28;20103;-64
2022/01/17 09:23:23;;;;;;;16.75;7.63;;;8.50;80.50;;;;;;5095224;28;20437;-64
2022/01/17 09:25:48;;;;;;;15.57;7.05;;;8.50;80.50;;;;;;5092778;28;20035;-63
2022/01/17 09:28:14;;;;;;;17.60;7.63;;;8.60;80.50;;;;;;5093622;28;20128;-64
2022/01/17 09:30:40;;;;;;;15.02;7.10;;;8.50;80.50;;;;;;5094354;28;20024;-63
2022/01/17 09:33:06;;;;;;;22.33;7.63;;;8.50;80.50;;;;;;5093848;28;20405;-63
2022/01/17 09:35:33;;;;;;;15.77;7.13;;;8.60;80.50;;;;;;5093581;28;20150;-64
2022/01/17 09:37:59;;;;;;;14.77;6.90;;;8.60;80.50;;;;;;5094826;28;20036;-63
2022/01/17 09:40:26;;;;;;;15.80;7.30;;;8.60;80.40;;;;;;5094750;28;20462;-63
2022/01/17 09:42:53;;;;;;;16.25;7.15;;;8.60;80.40;;;;;;5093610;28;20358;-63
2022/01/17 09:45:21;;;;;;;14.95;6.40;;;8.60;80.40;;;;;;5095191;28;20461;-64
2022/01/17 09:47:47;;;;;;;19.70;7.07;;;8.70;80.50;;;;;;5095260;28;20028;-63
2022/01/17 09:50:20;;;;;;;14.20;6.13;;;8.70;80.40;;;;;;5094531;28;20031;-63
2022/01/17 09:52:51;;;;;;;15.48;6.78;;;8.70;80.40;;;;;;5094949;28;20066;-64
2022/01/17 09:55:23;;;;;;;16.63;6.15;;;8.70;80.40;;;;;;5093738;28;20035;-64
2022/01/17 09:57:58;;;;;;;17.83;7.07;;;8.70;80.40;;;;;;5094690;28;20032;-64
2022/01/17 10:00:27;;;;;;;16.48;6.25;;;8.70;80.40;;;;;;5095000;28;20024;-63
2022/01/17 10:02:55;;;;;;;19.13;6.23;;;8.80;80.50;;;;;;5095030;28;20064;-64
2022/01/17 10:05:22;;;;;;;17.42;6.20;;;8.80;80.40;;;;;;5094499;28;20032;-64
2022/01/17 10:08:08;;;;;;;20.63;6.77;;;8.80;80.40;;;;;;5094100;28;20031;-64
2022/01/17 10:11:01;;;;;;;14.85;5.55;;;8.80;80.30;;;;;;5094890;28;20056;-64
2022/01/17 10:13:38;;;;;;;15.32;5.60;;;8.80;80.30;;;;;;5094822;28;20032;-64
2022/01/17 10:16:20;;;;;;;16.95;5.93;;;8.90;80.40;;;;;;5093946;28;20028;-64
2022/01/17 10:19:00;;;;;;;17.20;5.45;;;8.90;80.30;;;;;;5093762;28;20028;-64
2022/01/17 10:21:26;;;;;;;14.85;5.30;;;8.90;80.30;;;;;;5094134;28;20024;-64
2022/01/17 10:29:32;;;;;;;14.60;4.38;;;9.00;80.40;;;;;;5074408;28;20442;-64
2022/01/17 10:34:56;;;;;;;14.10;4.18;;;9.10;80.50;;;;;;5074365;28;20032;-64
2022/01/17 10:37:27;;;;;;;12.52;3.90;;;9.00;80.40;;;;;;5083867;28;20119;-64
2022/01/17 10:40:02;;;;;;;11.77;4.82;;;9.00;80.50;;;;;;5094471;28;20425;-64
2022/01/17 10:42:37;;;;;;;15.52;4.30;;;9.10;80.60;;;;;;5093145;28;20028;-64
2022/01/17 10:45:15;;;;;;;17.20;5.23;;;9.10;80.60;;;;;;5094268;28;20090;-64
2022/01/17 10:47:44;;;;;;;12.35;4.00;;;9.10;80.60;;;;;;5093399;28;20424;-63
2022/01/17 10:50:18;;;;;;;13.25;4.45;;;9.10;80.60;;;;;;5094325;28;20145;-63
2022/01/17 10:52:47;;;;;;;13.80;3.80;;;9.10;80.60;;;;;;5094546;28;20309;-63
2022/01/17 10:55:23;;;;;;;14.77;4.18;;;9.10;80.60;;;;;;5095668;28;20114;-63
2022/01/17 10:57:52;;;;;;;14.30;4.45;;;9.20;80.70;;;;;;5098023;28;20072;-63
2022/01/17 11:00:30;;;;;;;18.35;4.30;;;9.20;80.70;;;;;;5096140;28;20027;-64
2022/01/17 11:02:59;;;;;;;13.00;4.30;;;9.30;80.70;;;;;;5095265;28;20020;-63
2022/01/17 11:05:27;;;;;;;21.08;4.07;;;9.30;80.60;;;;;;5096837;28;20109;-64
2022/01/17 11:07:56;;;;;;;13.88;3.67;;;9.40;80.70;;;;;;5095475;28;20035;-63
2022/01/17 11:10:39;;;;;;;17.35;4.53;;;9.40;80.60;;;;;;5096859;28;20028;-63
2022/01/17 11:13:13;;;;;;;11.25;2.92;;;9.40;80.60;;;;;;5097788;28;20036;-63
2022/01/17 11:15:40;;;;;;;13.93;3.88;;;9.40;80.70;;;;;;5093428;28;20024;-63
2022/01/17 11:18:18;;;;;;;16.95;4.18;;;9.40;80.70;;;;;;5093788;28;20020;-64
2022/01/17 11:20:44;;;;;;;15.63;4.10;;;9.50;80.70;;;;;;5087931;28;20912;-64
2022/01/17 11:23:09;;;;;;;14.63;3.55;;;9.50;80.70;;;;;;5097534;28;20028;-64
2022/01/17 11:25:41;;;;;;;14.05;3.78;;;9.50;80.70;;;;;;5096601;28;20032;-64
2022/01/17 11:28:08;;;;;;;13.15;3.80;;;9.50;80.70;;;;;;5096878;28;20040;-64
2022/01/17 11:30:36;;;;;;;13.63;4.22;;;9.50;80.70;;;;;;5096473;28;20028;-64
2022/01/17 11:33:04;;;;;;;23.15;4.35;;;9.50;80.70;;;;;;5079280;28;20024;-64
2022/01/17 11:35:31;;;;;;;12.05;3.78;;;9.50;80.70;;;;;;5093747;28;20058;-64
2022/01/17 11:37:59;;;;;;;17.55;4.00;;;9.60;80.80;;;;;;5096339;28;20032;-64
2022/01/17 11:40:34;;;;;;;13.55;3.70;;;9.60;80.80;;;;;;5079200;28;20023;-63
2022/01/17 11:43:01;;;;;;;10.65;3.10;;;9.60;80.70;;;;;;5095554;28;20352;-63
2022/01/17 11:45:33;;;;;;;12.18;3.90;;;9.60;80.70;;;;;;5096263;28;20134;-63
2022/01/17 11:47:59;;;;;;;17.20;4.00;;;9.70;80.70;;;;;;5095967;28;20085;-63
2022/01/17 11:50:28;;;;;;;13.85;4.18;;;9.70;80.70;;;;;;5097745;28;20028;-64
2022/01/17 11:52:55;;;;;;;15.20;4.03;;;9.70;80.70;;;;;;5094767;28;20122;-64
2022/01/17 11:55:39;;;;;;;10.73;3.22;;;9.70;80.60;;;;;;5092991;28;20063;-64
2022/01/17 11:58:27;;;;;;;16.15;2.85;;;9.80;80.60;;;;;;5092907;28;20040;-64
2022/01/17 12:01:01;;;;;;;14.68;2.95;;;9.80;80.50;;;;;;5092594;28;20040;-64
2022/01/17 12:03:28;;;;;;;10.63;3.05;;;9.80;80.50;;;;;;5094635;28;20060;-65
2022/01/17 12:05:55;;;;;;;12.93;3.47;;;9.80;80.50;;;;;;5094909;28;20020;-65
2022/01/17 12:08:24;;;;;;;21.38;3.28;;;9.80;80.50;;;;;;5096986;28;20502;-64
2022/01/17 12:10:57;;;;;;;15.70;3.45;;;9.90;80.60;;;;;;5095868;28;20036;-64
2022/01/17 12:13:43;;;;;;;16.50;3.58;;;9.90;80.60;;;;;;5096298;28;20342;-64
2022/01/17 12:16:13;;;;;;;13.05;3.08;;;9.90;80.40;;;;;;5109523;28;20465;-64
2022/01/17 12:19:03;;;;;;;14.63;3.80;;;10.00;80.40;;;;;;5095316;28;20115;-64
2022/01/17 12:21:40;;;;;;;12.02;2.60;;;10.00;80.30;;;;;;5095905;28;20106;-64
2022/01/17 12:24:15;;;;;;;15.27;3.75;;;10.00;80.30;;;;;;5096709;28;20493;-64
2022/01/17 12:26:42;;;;;;;14.55;4.20;;;10.10;80.20;;;;;;5094891;28;20032;-64
2022/01/17 12:29:08;;;;;;;13.98;3.60;;;10.10;80.10;;;;;;5094962;28;20048;-64
2022/01/17 12:31:47;;;;;;;14.80;3.35;;;10.10;80.10;;;;;;5095412;28;20020;-64
2022/01/17 12:34:25;;;;;;;10.02;2.72;;;10.20;80.10;;;;;;5095343;28;20085;-64
2022/01/17 12:36:52;;;;;;;14.43;3.35;;;10.20;79.90;;;;;;5095653;28;20342;-64
2022/01/17 12:39:23;;;;;;;13.98;2.90;;;10.20;79.80;;;;;;5096547;28;20026;-64
2022/01/17 12:42:03;;;;;;;10.05;2.50;;;10.20;79.80;;;;;;5077800;28;20036;-64
2022/01/17 12:44:33;;;;;;;9.15;2.40;;;10.20;79.80;;;;;;5096199;28;20460;-64
2022/01/17 12:47:00;;;;;;;14.25;3.53;;;10.20;80.50;;;;;;5095220;28;20115;-64
2022/01/17 12:49:27;;;;;;;13.23;3.65;;;10.30;79.80;;;;;;5095340;28;20028;-63
2022/01/17 12:51:56;;;;;;;13.32;2.58;;;10.30;79.70;;;;;;5091662;28;20028;-64
2022/01/17 12:54:28;;;;;;;17.00;2.92;;;10.30;79.60;;;;;;5095977;28;20441;-64
2022/01/17 12:56:56;;;;;;;14.73;3.40;;;10.30;79.60;;;;;;5095877;28;20038;-64
2022/01/17 12:59:22;;;;;;;13.55;3.13;;;10.30;79.60;;;;;;5096372;28;20027;-64
2022/01/17 13:01:51;;;;;;;16.45;3.85;;;10.30;79.50;;;;;;5095493;28;20020;-64
2022/01/17 13:04:18;;;;;;;12.77;3.47;;;10.40;79.50;;;;;;5094786;28;20034;-64
2022/01/17 13:06:45;;;;;;;10.65;2.55;;;10.40;79.40;;;;;;5095344;28;20028;-63
2022/01/17 13:09:20;;;;;;;14.80;3.30;;;10.40;79.40;;;;;;5096489;28;20024;-64
2022/01/17 13:11:47;;;;;;;17.85;4.38;;;10.40;79.30;;;;;;5091527;28;20059;-64
2022/01/17 13:14:15;;;;;;;14.73;3.40;;;10.40;79.20;;;;;;5095503;28;20055;-65